Terminal Aerodrome Forecast
Issued by NWS

Current Version | Previous Version | Text Only | Print | Product List | Glossary On
Versions: 1 2 3 4 5 6 7 8 9 10 11 12 13 14 15
000
FTUS44 KLZK 030538
TAFHOT
TAF
KHOT 030538Z 0306/0406 31004KT P6SM SCT050
     FM031500 32006KT P6SM BKN050
     FM032100 36007KT P6SM SCT050=

USA.gov is the U.S. government's official web portal to all federal, state and local government web resources and services.